Time;durP1;ratioP1;P1;durP2;ratioP2;P2;SDS_P1;SDS_P2;PMS_P1;PMS_P2;Temp;Humidity;BMP_temperature;BMP_pressure;BME280_temperature;BME280_humidity;BME280_pressure;Samples;Min_cycle;Max_cycle;Signal;HPM_P1;HPM_P2
2023/01/29 00:01:17;;;;;;;28.52;11.68;;;1.80;84.30;;;;;;5076050;28;20094;-77
2023/01/29 00:03:42;;;;;;;26.35;11.75;;;1.90;84.50;;;;;;5093736;28;20069;-77
2023/01/29 00:06:08;;;;;;;30.67;12.02;;;1.90;84.30;;;;;;5093699;28;20084;-76
2023/01/29 00:08:38;;;;;;;30.63;10.98;;;1.90;84.20;;;;;;5075955;28;20029;-77
2023/01/29 00:11:05;;;;;;;24.20;11.38;;;1.90;85.00;;;;;;5093622;28;20039;-77
2023/01/29 00:13:30;;;;;;;25.58;10.95;;;1.80;84.40;;;;;;5076170;28;20035;-77
2023/01/29 00:15:57;;;;;;;27.60;10.13;;;1.80;84.40;;;;;;5093566;28;20028;-76
2023/01/29 00:18:24;;;;;;;27.23;10.90;;;1.80;84.30;;;;;;5093564;28;20118;-76
2023/01/29 00:20:50;;;;;;;22.02;9.52;;;1.70;84.10;;;;;;5075705;28;20028;-77
2023/01/29 00:23:16;;;;;;;21.85;9.05;;;1.50;84.50;;;;;;5075753;28;20032;-77
2023/01/29 00:25:42;;;;;;;21.75;9.23;;;1.50;84.90;;;;;;5093445;28;20432;-76
2023/01/29 00:28:08;;;;;;;23.30;8.05;;;1.40;84.90;;;;;;5093421;28;20019;-77
2023/01/29 00:30:36;;;;;;;19.70;7.72;;;1.40;84.90;;;;;;5075664;28;20056;-77
2023/01/29 00:33:02;;;;;;;19.80;8.48;;;1.30;85.00;;;;;;5093407;28;20031;-76
2023/01/29 00:35:27;;;;;;;22.65;8.43;;;1.30;85.00;;;;;;5075760;28;20035;-77
2023/01/29 00:37:57;;;;;;;18.52;7.82;;;1.20;85.00;;;;;;5058924;28;20049;-77
2023/01/29 00:40:24;;;;;;;21.85;9.10;;;1.20;85.10;;;;;;5093198;28;20054;-77
2023/01/29 00:45:35;;;;;;;20.20;8.55;;;1.10;86.00;;;;;;5078444;28;20096;-76
2023/01/29 00:48:02;;;;;;;21.92;8.05;;;1.10;85.80;;;;;;5093234;28;20020;-77
2023/01/29 00:50:29;;;;;;;18.52;7.80;;;1.10;86.20;;;;;;5075385;28;20043;-76
2023/01/29 00:52:54;;;;;;;15.25;6.80;;;1.10;86.30;;;;;;5093209;28;20021;-76
2023/01/29 00:55:20;;;;;;;20.13;7.70;;;1.10;86.20;;;;;;5077169;28;20417;-77
2023/01/29 00:57:45;;;;;;;20.80;8.48;;;1.10;86.20;;;;;;5079648;28;20037;-76
2023/01/29 01:00:15;;;;;;;17.20;6.70;;;1.10;86.40;;;;;;5097195;28;20043;-77
2023/01/29 01:05:25;;;;;;;21.50;7.30;;;1.00;86.60;;;;;;5082540;28;20043;-77
2023/01/29 01:07:53;;;;;;;18.77;7.10;;;1.00;86.90;;;;;;5079252;28;20028;-77
2023/01/29 01:10:21;;;;;;;23.77;7.68;;;1.00;86.90;;;;;;5079337;28;20028;-77
2023/01/29 01:13:12;;;;;;;19.80;7.10;;;1.00;86.70;;;;;;5097165;28;20058;-77
2023/01/29 01:15:39;;;;;;;23.00;7.38;;;1.00;86.60;;;;;;5092444;28;20062;-77
2023/01/29 01:18:05;;;;;;;17.55;7.30;;;1.00;86.80;;;;;;5096906;28;20038;-77
2023/01/29 01:20:33;;;;;;;18.08;7.97;;;1.00;86.80;;;;;;5096792;28;20060;-76
2023/01/29 01:22:58;;;;;;;21.95;8.10;;;1.10;86.70;;;;;;5096859;28;20024;-77
2023/01/29 01:25:25;;;;;;;23.00;7.95;;;1.10;86.50;;;;;;5079181;28;20037;-76
2023/01/29 01:27:56;;;;;;;24.65;8.75;;;1.20;86.40;;;;;;5096727;28;20078;-76
2023/01/29 01:30:22;;;;;;;22.48;7.68;;;1.20;86.20;;;;;;5096664;28;20032;-77
2023/01/29 01:32:48;;;;;;;22.08;8.93;;;1.30;86.20;;;;;;5096611;28;20028;-77
2023/01/29 01:35:14;;;;;;;23.75;8.23;;;1.30;86.00;;;;;;5096572;28;20031;-76
2023/01/29 01:37:41;;;;;;;21.50;7.75;;;1.40;85.90;;;;;;5096332;28;20049;-76
2023/01/29 01:40:19;;;;;;;24.10;8.60;;;1.30;85.90;;;;;;5096400;28;20053;-76
2023/01/29 01:42:54;;;;;;;22.73;8.05;;;1.40;85.80;;;;;;5096512;28;20081;-77
2023/01/29 01:45:19;;;;;;;19.15;8.73;;;1.40;85.90;;;;;;5096375;28;20024;-77
2023/01/29 01:47:55;;;;;;;20.55;7.75;;;1.40;85.80;;;;;;5078581;28;20020;-77
2023/01/29 01:50:27;;;;;;;19.17;7.45;;;1.40;85.90;;;;;;5096328;28;20024;-76
2023/01/29 01:52:59;;;;;;;20.33;7.72;;;1.40;85.90;;;;;;5096286;28;20032;-77
2023/01/29 01:55:26;;;;;;;;;;;1.40;85.80;;;;;;5096667;28;20021;-76
2023/01/29 01:58:01;;;;;;;18.42;7.18;;;1.40;85.80;;;;;;5096178;28;19904;-76
2023/01/29 02:00:27;;;;;;;18.17;7.30;;;1.40;85.90;;;;;;5096073;28;20027;-76
2023/01/29 02:11:27;;;;;;;16.85;7.60;;;1.40;85.80;;;;;;5095989;28;20113;-77
2023/01/29 02:13:53;;;;;;;19.25;8.00;;;1.40;85.80;;;;;;5095891;28;20032;-77
2023/01/29 02:16:21;;;;;;;19.08;7.22;;;1.30;86.00;;;;;;5078197;28;20036;-76
2023/01/29 02:18:46;;;;;;;18.52;7.82;;;1.30;85.90;;;;;;5095772;28;20021;-76
2023/01/29 02:21:45;;;;;;;19.13;8.88;;;1.30;86.20;;;;;;5078021;28;20111;-77
2023/01/29 02:24:39;;;;;;;20.67;8.52;;;1.30;86.10;;;;;;5094986;28;20033;-76
2023/01/29 02:27:15;;;;;;;20.15;8.10;;;1.40;86.00;;;;;;5095626;28;20108;-77
2023/01/29 02:30:13;;;;;;;17.85;7.90;;;1.40;85.90;;;;;;5095770;28;20447;-77
2023/01/29 02:32:57;;;;;;;18.55;7.47;;;1.40;85.90;;;;;;5061466;28;20044;-76
2023/01/29 02:35:31;;;;;;;21.27;8.15;;;1.40;86.00;;;;;;5095509;28;20056;-76
2023/01/29 02:38:16;;;;;;;20.25;8.40;;;1.40;86.20;;;;;;5095265;28;20049;-77
2023/01/29 02:41:00;;;;;;;17.92;7.88;;;1.40;86.40;;;;;;5095337;28;20481;-76
2023/01/29 02:43:47;;;;;;;22.75;8.80;;;1.40;86.30;;;;;;5095365;28;20099;-76
2023/01/29 02:46:32;;;;;;;20.80;8.23;;;1.30;86.30;;;;;;5095278;28;20028;-77
2023/01/29 02:49:10;;;;;;;18.52;7.97;;;1.30;86.70;;;;;;5095224;28;20077;-76
2023/01/29 02:51:45;;;;;;;20.85;8.02;;;1.30;87.20;;;;;;5095171;28;20052;-77
2023/01/29 02:54:22;;;;;;;19.73;7.75;;;1.20;87.20;;;;;;5077468;28;20028;-77
2023/01/29 02:56:56;;;;;;;19.13;7.90;;;1.20;87.40;;;;;;5095051;28;20048;-76
2023/01/29 02:59:28;;;;;;;18.13;7.72;;;1.20;87.90;;;;;;5077239;28;20031;-76
2023/01/29 03:02:22;;;;;;;18.38;6.72;;;1.10;87.90;;;;;;5077232;28;20120;-77
2023/01/29 03:04:55;;;;;;;22.88;9.02;;;1.10;87.90;;;;;;5089773;28;20036;-77
2023/01/29 03:07:43;;;;;;;25.55;9.55;;;1.10;87.90;;;;;;5077165;28;20019;-77
2023/01/29 03:10:17;;;;;;;23.85;8.63;;;1.10;88.00;;;;;;5094835;28;20444;-77
2023/01/29 03:12:46;;;;;;;23.08;8.68;;;1.20;88.20;;;;;;5094787;28;20066;-77
2023/01/29 03:15:38;;;;;;;22.60;8.45;;;1.20;88.00;;;;;;5094652;28;20028;-77
2023/01/29 03:18:15;;;;;;;21.70;8.52;;;1.20;87.70;;;;;;5094118;28;20025;-77
2023/01/29 03:20:50;;;;;;;25.85;8.75;;;1.20;87.80;;;;;;5094551;28;20111;-76
2023/01/29 03:32:05;;;;;;;22.20;8.68;;;1.20;88.30;;;;;;5094607;28;20096;-76
2023/01/29 03:34:40;;;;;;;24.73;9.82;;;1.10;88.40;;;;;;5094464;28;20028;-76
2023/01/29 03:37:24;;;;;;;24.25;9.38;;;1.20;88.10;;;;;;5094143;28;20045;-76
2023/01/29 03:39:50;;;;;;;22.25;9.00;;;1.30;88.00;;;;;;5094303;28;20064;-76
2023/01/29 03:42:28;;;;;;;26.45;9.90;;;1.30;87.80;;;;;;5094096;28;20424;-76
2023/01/29 03:45:07;;;;;;;25.65;9.93;;;1.30;87.80;;;;;;5094130;28;20076;-76
2023/01/29 03:47:55;;;;;;;21.50;9.40;;;1.30;88.50;;;;;;5094051;28;20024;-77
2023/01/29 03:50:37;;;;;;;20.65;9.00;;;1.20;88.60;;;;;;5076383;28;20028;-77
2023/01/29 03:53:40;;;;;;;21.80;8.98;;;1.20;88.60;;;;;;5093970;28;20033;-77
2023/01/29 03:56:28;;;;;;;27.80;9.85;;;1.20;88.40;;;;;;5093920;28;20029;-77
2023/01/29 03:59:24;;;;;;;23.35;9.05;;;1.30;88.50;;;;;;5094001;28;20035;-77
2023/01/29 04:02:00;;;;;;;20.08;9.40;;;1.30;88.60;;;;;;5076180;28;20032;-77
2023/01/29 04:04:38;;;;;;;26.15;10.40;;;1.30;88.40;;;;;;5093794;28;20012;-77
2023/01/29 04:07:22;;;;;;;27.02;10.43;;;1.30;88.40;;;;;;5093724;28;20044;-77
2023/01/29 04:10:04;;;;;;;24.83;9.32;;;1.40;88.60;;;;;;5093704;28;20016;-77
2023/01/29 04:12:53;;;;;;;30.15;10.18;;;1.30;89.00;;;;;;5093807;28;20036;-77
2023/01/29 04:15:21;;;;;;;22.20;10.32;;;1.30;89.10;;;;;;5093500;28;20029;-77
2023/01/29 04:17:51;;;;;;;27.67;10.02;;;1.30;89.30;;;;;;5093757;28;20066;-77
2023/01/29 04:20:18;;;;;;;20.85;9.20;;;1.20;89.30;;;;;;5075883;28;20112;-77
2023/01/29 04:22:46;;;;;;;27.13;10.55;;;1.30;89.40;;;;;;5076028;28;20417;-77
2023/01/29 04:25:25;;;;;;;26.42;8.65;;;1.30;89.40;;;;;;5093501;28;20013;-76
2023/01/29 04:28:03;;;;;;;20.42;8.23;;;1.30;89.20;;;;;;5093495;28;20031;-76
2023/01/29 04:30:37;;;;;;;29.33;9.60;;;1.40;89.10;;;;;;5092590;28;20092;-77
2023/01/29 04:33:28;;;;;;;22.23;9.10;;;1.40;89.20;;;;;;5093432;28;20069;-77
2023/01/29 04:36:11;;;;;;;18.00;8.57;;;1.30;89.70;;;;;;5093524;28;20028;-76
2023/01/29 04:39:09;;;;;;;18.73;8.02;;;1.20;90.10;;;;;;5093236;28;20040;-76
2023/01/29 04:41:52;;;;;;;23.98;9.82;;;1.20;90.40;;;;;;5093314;28;20090;-77
2023/01/29 04:44:43;;;;;;;27.60;9.43;;;1.20;90.30;;;;;;5093468;28;20019;-77
2023/01/29 04:47:15;;;;;;;27.58;11.23;;;1.20;90.50;;;;;;5093299;28;20031;-76
2023/01/29 04:50:02;;;;;;;21.50;10.02;;;1.10;90.60;;;;;;5093322;28;20016;-77
2023/01/29 04:52:45;;;;;;;20.13;8.48;;;1.10;90.80;;;;;;5093204;28;20021;-76
2023/01/29 04:55:43;;;;;;;30.05;11.63;;;1.00;90.90;;;;;;5093274;28;20076;-76
2023/01/29 04:58:15;;;;;;;24.98;8.68;;;1.00;91.00;;;;;;5075362;28;20504;-76
2023/01/29 05:00:43;;;;;;;24.08;8.90;;;1.00;91.00;;;;;;5075259;28;20027;-76
2023/01/29 05:03:14;;;;;;;25.02;10.23;;;1.00;91.00;;;;;;5075435;28;20096;-76
2023/01/29 05:05:42;;;;;;;27.42;10.77;;;1.00;91.00;;;;;;5093057;28;20064;-76
2023/01/29 05:08:12;;;;;;;23.75;10.80;;;1.10;91.00;;;;;;5093004;28;20104;-76
2023/01/29 05:10:38;;;;;;;32.72;13.20;;;1.10;90.90;;;;;;5075329;28;20028;-76
2023/01/29 05:13:07;;;;;;;28.35;10.93;;;1.20;90.70;;;;;;5092971;28;20037;-76
2023/01/29 05:15:37;;;;;;;25.17;10.25;;;1.20;90.60;;;;;;5093118;28;20025;-76
2023/01/29 05:18:07;;;;;;;25.05;10.77;;;1.30;90.60;;;;;;5092989;28;20025;-77
2023/01/29 05:20:40;;;;;;;24.60;10.48;;;1.30;90.70;;;;;;5059028;28;20055;-77
2023/01/29 05:23:17;;;;;;;25.48;11.38;;;1.30;90.60;;;;;;5093115;28;20032;-77
2023/01/29 05:25:43;;;;;;;22.55;8.77;;;1.30;90.60;;;;;;5092918;28;20024;-77
2023/01/29 05:28:15;;;;;;;24.10;11.18;;;1.40;90.60;;;;;;5092851;28;20023;-77
2023/01/29 05:30:43;;;;;;;24.17;10.98;;;1.40;90.40;;;;;;5093033;28;20032;-77
2023/01/29 05:33:24;;;;;;;23.98;11.05;;;1.50;90.20;;;;;;5092834;28;20028;-77
2023/01/29 05:35:50;;;;;;;30.70;10.75;;;1.60;90.10;;;;;;5092850;28;20032;-77
2023/01/29 05:38:17;;;;;;;33.72;12.38;;;1.60;90.10;;;;;;5092565;28;20056;-77
2023/01/29 05:40:43;;;;;;;22.48;9.43;;;1.50;90.20;;;;;;5075418;28;20038;-77
2023/01/29 05:43:20;;;;;;;27.33;11.15;;;1.60;90.20;;;;;;5096465;28;20066;-77
2023/01/29 05:45:57;;;;;;;20.52;9.75;;;1.60;90.20;;;;;;5096472;28;20021;-77
2023/01/29 05:48:23;;;;;;;25.45;10.88;;;1.60;90.00;;;;;;5096427;28;20025;-77
2023/01/29 05:50:49;;;;;;;27.83;9.88;;;1.60;90.10;;;;;;5096301;28;20060;-77
2023/01/29 05:53:14;;;;;;;30.02;10.65;;;1.60;90.10;;;;;;5096267;28;20036;-77
2023/01/29 05:55:44;;;;;;;22.13;9.60;;;1.70;90.00;;;;;;5096374;28;20032;-77
2023/01/29 05:58:10;;;;;;;26.67;10.18;;;1.60;90.10;;;;;;5096461;28;20029;-77
2023/01/29 06:00:35;;;;;;;30.17;11.68;;;1.70;90.00;;;;;;5096095;28;20105;-77
2023/01/29 06:03:01;;;;;;;26.98;11.00;;;1.70;90.10;;;;;;5096101;28;20033;-77
2023/01/29 06:05:27;;;;;;;30.27;10.70;;;1.70;90.00;;;;;;5096058;28;20017;-77
2023/01/29 06:07:52;;;;;;;22.70;8.93;;;1.70;90.00;;;;;;5095951;28;20489;-76
2023/01/29 06:10:19;;;;;;;32.05;11.57;;;1.80;90.10;;;;;;5095980;28;20039;-77
2023/01/29 06:12:45;;;;;;;27.55;9.95;;;1.80;90.00;;;;;;5095979;28;20021;-77
2023/01/29 06:15:11;;;;;;;27.10;11.65;;;1.80;90.00;;;;;;5078169;28;20043;-77
2023/01/29 06:17:37;;;;;;;28.70;10.98;;;1.80;90.00;;;;;;5095682;28;20058;-77
2023/01/29 06:20:03;;;;;;;27.67;11.45;;;1.80;90.10;;;;;;5095712;28;20436;-76
2023/01/29 06:22:29;;;;;;;27.50;10.85;;;1.80;90.20;;;;;;5095759;28;20021;-77
2023/01/29 06:24:55;;;;;;;26.27;11.25;;;1.70;90.30;;;;;;5095688;28;20070;-77
2023/01/29 06:27:20;;;;;;;26.88;10.88;;;1.70;90.60;;;;;;5095651;28;20052;-77
2023/01/29 06:29:46;;;;;;;29.92;10.30;;;1.70;90.70;;;;;;5078047;28;20059;-77
2023/01/29 06:32:12;;;;;;;32.13;10.63;;;1.70;90.70;;;;;;5077926;28;20035;-77
2023/01/29 06:34:37;;;;;;;22.00;9.32;;;1.70;90.70;;;;;;5095536;28;20050;-77
2023/01/29 06:37:03;;;;;;;29.73;10.90;;;1.70;90.70;;;;;;5077699;28;20040;-76
2023/01/29 06:39:28;;;;;;;27.35;11.15;;;1.70;90.90;;;;;;5095434;28;20051;-77
2023/01/29 06:41:54;;;;;;;26.42;10.32;;;1.70;90.90;;;;;;5077866;28;20036;-77
2023/01/29 06:44:20;;;;;;;26.27;10.00;;;1.70;90.90;;;;;;5077628;28;20036;-76
2023/01/29 06:46:45;;;;;;;30.30;10.43;;;1.70;90.90;;;;;;5095297;28;20029;-76
2023/01/29 06:49:12;;;;;;;28.20;10.95;;;1.80;90.90;;;;;;5060833;28;20096;-77
2023/01/29 06:51:37;;;;;;;28.30;10.32;;;1.70;91.30;;;;;;5095344;28;20027;-76
2023/01/29 06:54:05;;;;;;;25.35;10.93;;;1.70;91.00;;;;;;5076696;28;20032;-77
2023/01/29 06:56:30;;;;;;;29.90;11.20;;;1.70;91.10;;;;;;5095126;28;20047;-76
2023/01/29 06:58:56;;;;;;;32.95;12.23;;;1.70;91.00;;;;;;5077483;28;20036;-77
2023/01/29 07:01:21;;;;;;;30.45;11.63;;;1.70;91.10;;;;;;5094936;28;20033;-77
2023/01/29 07:03:50;;;;;;;28.25;10.13;;;1.70;91.20;;;;;;5094949;28;20021;-77
2023/01/29 07:06:15;;;;;;;26.27;10.75;;;1.70;91.30;;;;;;5094914;28;20023;-77
2023/01/29 07:08:41;;;;;;;29.77;11.50;;;1.80;91.20;;;;;;5094784;28;20048;-76
2023/01/29 07:11:07;;;;;;;24.33;9.20;;;1.80;91.20;;;;;;5094805;28;20021;-76
2023/01/29 07:13:33;;;;;;;25.73;11.48;;;1.70;91.10;;;;;;5094784;28;20100;-76
2023/01/29 07:16:03;;;;;;;22.17;9.07;;;1.80;91.20;;;;;;5077068;28;20049;-75
2023/01/29 07:18:29;;;;;;;27.25;12.25;;;1.70;91.40;;;;;;5077071;28;20029;-75
2023/01/29 07:20:55;;;;;;;25.80;10.85;;;1.80;91.40;;;;;;5094510;28;20050;-75
2023/01/29 07:23:21;;;;;;;32.60;12.63;;;1.70;91.40;;;;;;5094537;28;20021;-76
2023/01/29 07:25:48;;;;;;;29.50;9.90;;;1.70;91.40;;;;;;5076788;28;20029;-75
2023/01/29 07:28:15;;;;;;;34.67;11.80;;;1.80;91.40;;;;;;5077014;28;20035;-76
2023/01/29 07:30:41;;;;;;;25.95;10.40;;;1.80;91.40;;;;;;5059919;28;20074;-76
2023/01/29 07:33:09;;;;;;;30.63;12.05;;;1.80;91.30;;;;;;5094372;28;20024;-76
2023/01/29 07:35:39;;;;;;;29.70;12.27;;;1.80;91.30;;;;;;5094024;28;20040;-75
2023/01/29 07:38:06;;;;;;;29.02;11.45;;;1.80;91.40;;;;;;5093959;28;20040;-77
2023/01/29 07:40:32;;;;;;;29.55;11.30;;;1.80;91.30;;;;;;5094112;28;20060;-75
2023/01/29 07:42:59;;;;;;;29.13;11.88;;;1.80;91.40;;;;;;5094178;28;20028;-76
2023/01/29 07:45:25;;;;;;;28.52;10.98;;;1.80;91.30;;;;;;5094119;28;20012;-76
2023/01/29 07:47:53;;;;;;;26.15;11.18;;;1.80;91.20;;;;;;5076339;28;20028;-76
2023/01/29 07:50:18;;;;;;;20.35;8.70;;;1.90;91.30;;;;;;5094048;28;20074;-76
2023/01/29 07:52:44;;;;;;;30.67;10.80;;;1.80;91.30;;;;;;5093925;28;20058;-76
2023/01/29 07:55:10;;;;;;;31.52;11.98;;;1.80;91.30;;;;;;5059524;28;20037;-76
2023/01/29 07:57:35;;;;;;;30.35;11.32;;;1.80;91.30;;;;;;5076331;28;20033;-76
2023/01/29 08:00:01;;;;;;;29.83;11.75;;;1.80;91.50;;;;;;5093770;28;20025;-76
2023/01/29 08:02:27;;;;;;;26.40;10.68;;;1.80;91.50;;;;;;5093775;28;20029;-76
2023/01/29 08:04:52;;;;;;;33.53;11.75;;;1.90;91.50;;;;;;5093583;28;20052;-76
2023/01/29 08:07:18;;;;;;;33.00;11.20;;;1.90;91.50;;;;;;5093701;28;20033;-75
2023/01/29 08:09:44;;;;;;;24.60;9.45;;;1.90;91.70;;;;;;5093613;28;20025;-76
2023/01/29 08:12:10;;;;;;;25.40;10.55;;;1.90;91.50;;;;;;5093816;28;20059;-76
2023/01/29 08:14:36;;;;;;;30.60;12.70;;;1.90;91.50;;;;;;5093625;28;20028;-76
2023/01/29 08:17:01;;;;;;;20.90;10.18;;;1.90;91.60;;;;;;5093721;28;20028;-76
2023/01/29 08:19:27;;;;;;;22.05;8.52;;;1.90;91.50;;;;;;5093550;28;20032;-76
2023/01/29 08:21:52;;;;;;;26.77;9.25;;;1.80;91.50;;;;;;5075758;28;20036;-76
2023/01/29 08:24:18;;;;;;;28.55;10.23;;;1.80;91.60;;;;;;5075736;28;20025;-76
2023/01/29 08:26:44;;;;;;;26.30;12.35;;;1.80;91.60;;;;;;5075630;28;20047;-76
2023/01/29 08:29:11;;;;;;;27.08;10.90;;;1.80;91.60;;;;;;5093424;28;20029;-76
2023/01/29 08:31:36;;;;;;;24.45;10.75;;;1.80;91.70;;;;;;5093412;28;20076;-77
2023/01/29 08:34:02;;;;;;;25.55;9.32;;;1.80;91.70;;;;;;5093394;28;20054;-76
2023/01/29 08:36:27;;;;;;;22.50;9.07;;;1.80;91.80;;;;;;5075683;28;20028;-77
2023/01/29 08:38:53;;;;;;;20.08;7.75;;;1.80;91.70;;;;;;5075601;28;20490;-77
2023/01/29 08:41:19;;;;;;;26.73;10.80;;;1.80;91.80;;;;;;5093247;28;20037;-77
2023/01/29 08:43:45;;;;;;;30.13;12.43;;;1.80;91.80;;;;;;5093232;28;20031;-76
2023/01/29 08:46:11;;;;;;;23.20;9.52;;;1.80;91.70;;;;;;5058954;28;20017;-76
2023/01/29 08:48:37;;;;;;;22.67;8.75;;;1.90;91.80;;;;;;5075464;28;20021;-77
2023/01/29 08:51:03;;;;;;;24.88;10.85;;;1.80;91.70;;;;;;5075480;28;20033;-77
2023/01/29 08:53:30;;;;;;;24.50;10.32;;;1.80;91.90;;;;;;5093250;28;20032;-76
2023/01/29 08:55:56;;;;;;;22.35;9.15;;;1.80;92.00;;;;;;5093186;28;20024;-77
2023/01/29 08:58:21;;;;;;;19.23;9.15;;;1.80;91.80;;;;;;5075352;28;20059;-77
2023/01/29 09:00:47;;;;;;;28.50;12.15;;;1.90;91.80;;;;;;5075353;28;20044;-77
2023/01/29 09:03:13;;;;;;;24.15;9.30;;;1.90;91.70;;;;;;5093095;28;20024;-77
2023/01/29 09:05:39;;;;;;;23.02;10.55;;;1.90;91.80;;;;;;5093056;28;20029;-76
2023/01/29 09:08:07;;;;;;;21.38;10.50;;;1.90;91.80;;;;;;5092944;28;20025;-77
2023/01/29 09:10:32;;;;;;;25.00;9.82;;;1.90;91.60;;;;;;5093139;28;20028;-77
2023/01/29 09:12:58;;;;;;;14.40;7.30;;;1.90;91.60;;;;;;5075233;28;20028;-78
2023/01/29 09:15:24;;;;;;;25.45;10.23;;;1.90;91.70;;;;;;5075445;28;20093;-77
2023/01/29 09:17:49;;;;;;;31.85;10.73;;;1.90;91.70;;;;;;5097077;28;20024;-77
2023/01/29 09:20:17;;;;;;;23.35;10.07;;;2.00;91.90;;;;;;5096865;28;20068;-77
2023/01/29 09:22:43;;;;;;;24.65;10.93;;;2.00;91.40;;;;;;5079275;28;20092;-77
2023/01/29 09:25:09;;;;;;;17.85;8.77;;;2.00;91.60;;;;;;5096826;28;20024;-78
2023/01/29 09:27:35;;;;;;;24.40;10.25;;;2.00;91.50;;;;;;5096811;28;20020;-78
2023/01/29 09:30:00;;;;;;;26.50;11.43;;;2.00;91.60;;;;;;5096738;28;20036;-77
2023/01/29 09:32:29;;;;;;;30.48;11.60;;;2.00;91.80;;;;;;5078991;28;20062;-77
2023/01/29 09:34:55;;;;;;;27.17;10.68;;;2.00;91.80;;;;;;5079429;28;20025;-77
2023/01/29 09:37:22;;;;;;;24.67;9.98;;;2.10;91.60;;;;;;5096510;28;20055;-77
2023/01/29 09:39:48;;;;;;;27.13;10.25;;;2.10;91.50;;;;;;5078659;28;20108;-77
2023/01/29 09:42:22;;;;;;;27.98;10.40;;;2.10;91.50;;;;;;5078920;28;20031;-77
2023/01/29 09:45:02;;;;;;;27.77;11.07;;;2.10;91.50;;;;;;5096632;28;20021;-77
2023/01/29 09:47:33;;;;;;;23.27;10.00;;;2.20;91.50;;;;;;5096611;28;20111;-77
2023/01/29 09:50:15;;;;;;;19.67;8.93;;;2.20;91.40;;;;;;5096119;28;20138;-77
2023/01/29 09:52:44;;;;;;;24.42;10.57;;;2.20;91.40;;;;;;5096326;28;20444;-77
2023/01/29 09:55:09;;;;;;;28.05;10.43;;;2.20;91.30;;;;;;5078548;28;20071;-78
2023/01/29 09:57:55;;;;;;;27.02;10.23;;;2.30;91.30;;;;;;5096212;28;20032;-77
2023/01/29 10:00:33;;;;;;;27.42;10.30;;;2.30;91.30;;;;;;5096263;28;20032;-77
2023/01/29 10:03:39;;;;;;;22.27;10.05;;;2.30;91.30;;;;;;5078563;28;20020;-77
2023/01/29 10:06:11;;;;;;;25.83;9.82;;;2.30;91.30;;;;;;5077417;28;20029;-77
2023/01/29 10:08:39;;;;;;;21.67;9.07;;;2.30;91.20;;;;;;5096091;28;20031;-78
2023/01/29 10:11:26;;;;;;;23.08;10.52;;;2.30;91.30;;;;;;5095975;28;20033;-77
2023/01/29 10:14:14;;;;;;;22.27;8.18;;;2.30;91.20;;;;;;5078279;28;20096;-77
2023/01/29 10:16:52;;;;;;;22.35;8.35;;;2.40;91.10;;;;;;5095865;28;20032;-77
2023/01/29 10:19:40;;;;;;;23.38;8.52;;;2.40;91.10;;;;;;5078072;28;20035;-77
2023/01/29 10:22:18;;;;;;;12.98;5.88;;;2.40;91.10;;;;;;5095951;28;20024;-77
2023/01/29 10:24:59;;;;;;;26.17;11.38;;;2.40;91.10;;;;;;5095755;28;20025;-77
2023/01/29 10:27:37;;;;;;;27.65;11.88;;;2.40;90.90;;;;;;5094344;28;20035;-77
2023/01/29 10:30:08;;;;;;;25.90;10.70;;;2.50;91.00;;;;;;5077955;28;20021;-77
2023/01/29 10:32:35;;;;;;;23.92;11.07;;;2.50;91.00;;;;;;5077889;28;20024;-76
2023/01/29 10:35:26;;;;;;;26.20;10.95;;;2.50;90.90;;;;;;5095570;28;20059;-77
2023/01/29 10:37:53;;;;;;;34.13;12.48;;;2.50;91.10;;;;;;5095299;28;20102;-77
2023/01/29 10:40:27;;;;;;;23.90;11.02;;;2.60;90.70;;;;;;5077734;28;20037;-77
2023/01/29 10:43:19;;;;;;;23.35;11.50;;;2.50;90.60;;;;;;5095453;28;20035;-77
2023/01/29 10:45:48;;;;;;;30.33;10.77;;;2.60;90.80;;;;;;5090600;28;20040;-77
2023/01/29 10:48:36;;;;;;;27.88;11.05;;;2.60;90.70;;;;;;5095296;28;20016;-77
2023/01/29 10:51:23;;;;;;;30.17;11.50;;;2.60;90.80;;;;;;5095248;28;20029;-76
2023/01/29 10:54:27;;;;;;;27.17;12.38;;;2.70;90.80;;;;;;5095188;28;20083;-77
2023/01/29 10:57:22;;;;;;;28.98;11.50;;;2.70;90.80;;;;;;5095310;28;20032;-77
2023/01/29 11:00:19;;;;;;;20.75;10.10;;;2.70;90.30;;;;;;5095040;28;20024;-77
2023/01/29 11:02:49;;;;;;;27.70;10.90;;;2.70;90.20;;;;;;5081552;28;20052;-77
2023/01/29 11:05:42;;;;;;;26.08;10.20;;;2.80;90.30;;;;;;5077986;28;20029;-77
2023/01/29 11:08:16;;;;;;;;;;;2.80;89.90;;;;;;5095283;28;20405;-77
2023/01/29 11:11:04;;;;;;;17.45;6.32;;;2.90;90.10;;;;;;5094575;28;19926;-77
2023/01/29 11:13:34;;;;;;;22.27;9.82;;;2.90;90.10;;;;;;5094875;28;20032;-77
2023/01/29 11:16:02;;;;;;;21.15;10.73;;;2.90;89.60;;;;;;5094751;28;20078;-77
2023/01/29 11:18:52;;;;;;;11.23;5.72;;;2.90;89.70;;;;;;5094726;28;20054;-77
2023/01/29 11:21:17;;;;;;;19.15;8.55;;;2.90;89.10;;;;;;5094574;28;20028;-77
2023/01/29 11:23:43;;;;;;;17.33;7.95;;;3.00;89.80;;;;;;5094558;28;20029;-77
2023/01/29 11:26:12;;;;;;;22.80;9.73;;;3.00;89.30;;;;;;5094518;28;20032;-77
2023/01/29 11:28:41;;;;;;;21.02;9.73;;;3.00;88.30;;;;;;5094458;28;20024;-77
2023/01/29 11:31:26;;;;;;;25.95;11.70;;;3.00;89.10;;;;;;5076793;28;20047;-77
2023/01/29 11:34:00;;;;;;;25.02;10.82;;;3.10;88.90;;;;;;5094403;28;20051;-77
2023/01/29 11:36:37;;;;;;;19.88;8.77;;;3.10;89.00;;;;;;5094362;28;20028;-77
2023/01/29 11:39:21;;;;;;;24.13;10.43;;;3.10;88.80;;;;;;5093659;28;20101;-77
2023/01/29 11:41:57;;;;;;;17.50;8.07;;;3.20;88.50;;;;;;5094318;28;20055;-77
2023/01/29 11:44:26;;;;;;;22.13;9.40;;;3.30;89.00;;;;;;5076425;28;20035;-77
2023/01/29 11:46:53;;;;;;;22.50;9.95;;;3.30;88.80;;;;;;5076414;28;20017;-77
2023/01/29 11:49:33;;;;;;;18.80;9.05;;;3.30;88.70;;;;;;5076364;28;20020;-78
2023/01/29 11:52:06;;;;;;;16.15;8.13;;;3.40;88.20;;;;;;5094030;28;20469;-78
2023/01/29 11:54:49;;;;;;;20.17;8.77;;;3.40;87.70;;;;;;5093941;28;20025;-77
2023/01/29 11:57:23;;;;;;;23.13;9.68;;;3.40;87.60;;;;;;5076495;28;20024;-77
2023/01/29 11:59:51;;;;;;;22.52;10.15;;;3.40;87.40;;;;;;5093765;28;20024;-77
2023/01/29 12:02:26;;;;;;;17.38;8.32;;;3.50;88.10;;;;;;5093864;28;20024;-77
2023/01/29 12:04:56;;;;;;;21.00;10.00;;;3.50;86.90;;;;;;5076051;28;20023;-77
2023/01/29 12:07:22;;;;;;;24.63;10.68;;;3.50;87.10;;;;;;5093745;28;20013;-77
2023/01/29 12:09:54;;;;;;;22.90;9.43;;;3.50;87.60;;;;;;5093692;28;20020;-78
2023/01/29 12:12:41;;;;;;;20.77;10.43;;;3.50;86.20;;;;;;5093695;28;20028;-78
2023/01/29 12:15:23;;;;;;;25.55;11.35;;;3.60;85.90;;;;;;5093676;28;20017;-79
2023/01/29 12:18:16;;;;;;;17.35;7.72;;;3.60;85.50;;;;;;5093681;28;20020;-78
2023/01/29 12:20:55;;;;;;;19.05;9.00;;;3.60;85.60;;;;;;5093519;28;20032;-78
2023/01/29 12:23:55;;;;;;;26.08;10.73;;;3.60;85.50;;;;;;5093580;28;20024;-77
2023/01/29 12:26:35;;;;;;;19.30;8.80;;;3.60;85.30;;;;;;5046827;28;20036;-78
2023/01/29 12:29:29;;;;;;;16.20;7.82;;;3.60;84.80;;;;;;5075747;28;20016;-78
2023/01/29 12:32:03;;;;;;;20.42;7.95;;;3.60;85.00;;;;;;5075679;28;20035;-77
2023/01/29 12:34:47;;;;;;;22.65;10.10;;;3.60;84.80;;;;;;5093431;28;20028;-77
2023/01/29 12:37:15;;;;;;;24.20;9.85;;;3.60;85.30;;;;;;5093122;28;20087;-77
2023/01/29 12:39:41;;;;;;;28.00;10.25;;;3.60;85.00;;;;;;5075597;28;20047;-77
2023/01/29 12:42:18;;;;;;;17.75;9.10;;;3.70;84.90;;;;;;5075673;28;20111;-77
2023/01/29 12:44:58;;;;;;;25.88;10.55;;;3.70;84.50;;;;;;5093324;28;20028;-77
2023/01/29 12:47:41;;;;;;;20.00;8.90;;;3.70;85.00;;;;;;5093310;28;20104;-77
2023/01/29 12:50:25;;;;;;;23.75;9.80;;;3.80;85.20;;;;;;5092611;28;20082;-77
2023/01/29 12:52:57;;;;;;;24.67;10.82;;;3.80;84.90;;;;;;5075546;28;20052;-78
2023/01/29 12:55:48;;;;;;;20.70;8.70;;;3.70;84.60;;;;;;5093248;28;20021;-77
2023/01/29 12:58:30;;;;;;;15.55;8.40;;;3.70;84.40;;;;;;5064566;28;20036;-77
2023/01/29 13:01:02;;;;;;;24.23;11.32;;;3.70;85.10;;;;;;5093134;28;20028;-77
2023/01/29 13:03:50;;;;;;;23.67;11.70;;;3.70;85.40;;;;;;5075370;28;20031;-77
2023/01/29 13:06:25;;;;;;;22.00;10.43;;;3.80;84.60;;;;;;5093132;28;20084;-77
2023/01/29 13:08:54;;;;;;;26.70;10.73;;;3.90;84.80;;;;;;5093054;28;20033;-77
2023/01/29 13:11:37;;;;;;;24.65;10.57;;;3.80;84.60;;;;;;5093041;28;20085;-77
2023/01/29 13:14:23;;;;;;;26.08;10.80;;;3.90;84.70;;;;;;5093211;28;20088;-77
2023/01/29 13:17:01;;;;;;;24.88;12.05;;;3.90;84.70;;;;;;5075309;28;20020;-77
2023/01/29 13:19:33;;;;;;;31.02;13.60;;;3.90;84.60;;;;;;5092973;28;20508;-77
2023/01/29 13:22:04;;;;;;;27.98;12.52;;;3.90;84.50;;;;;;5092907;28;20029;-77
2023/01/29 13:24:40;;;;;;;26.30;11.52;;;3.90;84.70;;;;;;5092928;28;20031;-77
2023/01/29 13:27:12;;;;;;;25.52;10.25;;;4.00;85.00;;;;;;5092906;28;20052;-77
2023/01/29 13:29:38;;;;;;;;;;;4.00;84.40;;;;;;5093363;28;20025;-77
2023/01/29 13:32:04;;;;;;;22.35;9.90;;;4.00;84.60;;;;;;5092876;28;19908;-77
2023/01/29 13:34:44;;;;;;;26.92;11.73;;;4.00;85.00;;;;;;5092823;28;20086;-77